sensor_id;sensor_type;location;lat;lon;timestamp;pressure;altitude;pressure_sealevel;temperature;humidity
79368;BME280;68834;53.152;17.962;2023-03-29T00:02:23;101738.91;;;-3.45;60.83
79368;BME280;68834;53.152;17.962;2023-03-29T00:04:57;101741.46;;;-3.48;60.56
79368;BME280;68834;53.152;17.962;2023-03-29T00:07:27;101745.52;;;-3.53;60.58
79368;BME280;68834;53.152;17.962;2023-03-29T00:09:55;101745.95;;;-3.58;60.61
79368;BME280;68834;53.152;17.962;2023-03-29T00:12:22;101744.05;;;-3.62;61.26
79368;BME280;68834;53.152;17.962;2023-03-29T00:14:48;101746.65;;;-3.65;61.34
79368;BME280;68834;53.152;17.962;2023-03-29T00:17:15;101747.90;;;-3.67;61.38
79368;BME280;68834;53.152;17.962;2023-03-29T00:19:43;101747.08;;;-3.70;61.37
79368;BME280;68834;53.152;17.962;2023-03-29T00:22:11;101746.12;;;-3.72;61.68
79368;BME280;68834;53.152;17.962;2023-03-29T00:24:37;101742.04;;;-3.75;61.53
79368;BME280;68834;53.152;17.962;2023-03-29T00:27:04;101740.08;;;-3.77;61.87
79368;BME280;68834;53.152;17.962;2023-03-29T00:29:31;101738.84;;;-3.77;62.03
79368;BME280;68834;53.152;17.962;2023-03-29T00:31:58;101733.97;;;-3.80;62.05
79368;BME280;68834;53.152;17.962;2023-03-29T00:34:26;101730.09;;;-3.86;62.48
79368;BME280;68834;53.152;17.962;2023-03-29T00:36:56;101731.69;;;-3.91;62.12
79368;BME280;68834;53.152;17.962;2023-03-29T00:39:25;101730.10;;;-3.96;62.48
79368;BME280;68834;53.152;17.962;2023-03-29T00:41:55;101736.73;;;-4.00;62.42
79368;BME280;68834;53.152;17.962;2023-03-29T00:47:27;101731.98;;;-3.99;62.12
79368;BME280;68834;53.152;17.962;2023-03-29T00:49:59;101728.39;;;-3.96;62.13
79368;BME280;68834;53.152;17.962;2023-03-29T00:52:29;101727.89;;;-3.92;62.00
79368;BME280;68834;53.152;17.962;2023-03-29T00:55:01;101726.67;;;-3.89;62.05
79368;BME280;68834;53.152;17.962;2023-03-29T00:57:29;101722.27;;;-3.89;62.27
79368;BME280;68834;53.152;17.962;2023-03-29T00:59:57;101725.02;;;-3.88;61.79
79368;BME280;68834;53.152;17.962;2023-03-29T01:02:27;101722.21;;;-3.86;62.10
79368;BME280;68834;53.152;17.962;2023-03-29T01:05:06;101720.96;;;-3.87;62.07
79368;BME280;68834;53.152;17.962;2023-03-29T01:07:41;101721.96;;;-3.88;62.02
79368;BME280;68834;53.152;17.962;2023-03-29T01:10:29;101717.65;;;-3.89;62.30
79368;BME280;68834;53.152;17.962;2023-03-29T01:13:11;101714.39;;;-3.89;62.32
79368;BME280;68834;53.152;17.962;2023-03-29T01:15:42;101712.00;;;-3.92;62.59
79368;BME280;68834;53.152;17.962;2023-03-29T01:18:11;101712.69;;;-3.96;62.72
79368;BME280;68834;53.152;17.962;2023-03-29T01:21:02;101713.71;;;-3.99;62.90
79368;BME280;68834;53.152;17.962;2023-03-29T01:26:34;101710.70;;;-4.08;63.32
79368;BME280;68834;53.152;17.962;2023-03-29T01:29:08;101709.46;;;-4.12;63.13
79368;BME280;68834;53.152;17.962;2023-03-29T01:31:42;101708.41;;;-4.16;63.53
79368;BME280;68834;53.152;17.962;2023-03-29T01:34:18;101706.11;;;-4.21;63.26
79368;BME280;68834;53.152;17.962;2023-03-29T01:36:51;101704.17;;;-4.26;63.47
79368;BME280;68834;53.152;17.962;2023-03-29T01:39:24;101700.44;;;-4.29;63.37
79368;BME280;68834;53.152;17.962;2023-03-29T01:53:07;101690.86;;;-4.43;63.56
79368;BME280;68834;53.152;17.962;2023-03-29T01:55:38;101691.48;;;-4.47;63.89
79368;BME280;68834;53.152;17.962;2023-03-29T01:58:10;101697.01;;;-4.53;64.46
79368;BME280;68834;53.152;17.962;2023-03-29T02:00:40;101695.84;;;-4.59;63.72
79368;BME280;68834;53.152;17.962;2023-03-29T02:03:08;101697.48;;;-4.63;63.98
79368;BME280;68834;53.152;17.962;2023-03-29T02:05:39;101700.04;;;-4.70;64.44
79368;BME280;68834;53.152;17.962;2023-03-29T02:08:09;101696.39;;;-4.75;64.62
79368;BME280;68834;53.152;17.962;2023-03-29T02:10:37;101689.79;;;-4.74;64.61
79368;BME280;68834;53.152;17.962;2023-03-29T02:13:04;101686.57;;;-4.70;64.27
79368;BME280;68834;53.152;17.962;2023-03-29T02:15:33;101689.27;;;-4.64;64.43
79368;BME280;68834;53.152;17.962;2023-03-29T02:17:59;101689.17;;;-4.56;64.15
79368;BME280;68834;53.152;17.962;2023-03-29T02:20:33;101686.33;;;-4.48;64.01
79368;BME280;68834;53.152;17.962;2023-03-29T02:23:17;101690.39;;;-4.39;64.23
79368;BME280;68834;53.152;17.962;2023-03-29T02:25:48;101695.56;;;-4.34;63.82
79368;BME280;68834;53.152;17.962;2023-03-29T02:28:16;101697.23;;;-4.35;63.94
79368;BME280;68834;53.152;17.962;2023-03-29T02:30:56;101699.13;;;-4.35;63.99
79368;BME280;68834;53.152;17.962;2023-03-29T02:33:49;101700.20;;;-4.37;64.26
79368;BME280;68834;53.152;17.962;2023-03-29T02:36:39;101699.08;;;-4.46;64.37
79368;BME280;68834;53.152;17.962;2023-03-29T02:39:09;101699.89;;;-4.63;65.30
79368;BME280;68834;53.152;17.962;2023-03-29T02:41:43;101704.34;;;-4.76;65.78
79368;BME280;68834;53.152;17.962;2023-03-29T02:44:15;101703.70;;;-4.85;65.43
79368;BME280;68834;53.152;17.962;2023-03-29T02:46:46;101701.81;;;-4.95;66.18
79368;BME280;68834;53.152;17.962;2023-03-29T02:49:15;101703.89;;;-5.04;67.24
79368;BME280;68834;53.152;17.962;2023-03-29T02:51:43;101708.81;;;-5.10;67.07
79368;BME280;68834;53.152;17.962;2023-03-29T02:54:17;101683.63;;;-5.16;67.73
79368;BME280;68834;53.152;17.962;2023-03-29T02:56:48;101678.10;;;-5.21;67.62
79368;BME280;68834;53.152;17.962;2023-03-29T02:59:17;101675.65;;;-5.25;67.13
79368;BME280;68834;53.152;17.962;2023-03-29T03:01:48;101667.94;;;-5.29;67.37
79368;BME280;68834;53.152;17.962;2023-03-29T03:04:15;101664.00;;;-5.36;67.53
79368;BME280;68834;53.152;17.962;2023-03-29T03:06:48;101666.92;;;-5.38;67.28
79368;BME280;68834;53.152;17.962;2023-03-29T03:09:15;101663.27;;;-5.37;66.69
79368;BME280;68834;53.152;17.962;2023-03-29T03:11:43;101664.64;;;-5.34;66.75
79368;BME280;68834;53.152;17.962;2023-03-29T03:14:10;101667.52;;;-5.27;66.14
79368;BME280;68834;53.152;17.962;2023-03-29T03:16:37;101666.39;;;-5.20;66.69
79368;BME280;68834;53.152;17.962;2023-03-29T03:19:04;101669.63;;;-5.16;66.76
79368;BME280;68834;53.152;17.962;2023-03-29T03:21:31;101669.73;;;-5.14;66.63
79368;BME280;68834;53.152;17.962;2023-03-29T03:23:59;101666.73;;;-5.16;66.60
79368;BME280;68834;53.152;17.962;2023-03-29T03:26:25;101664.61;;;-5.18;66.26
79368;BME280;68834;53.152;17.962;2023-03-29T03:28:56;101664.77;;;-5.21;66.35
79368;BME280;68834;53.152;17.962;2023-03-29T03:31:41;101663.00;;;-5.23;66.30
79368;BME280;68834;53.152;17.962;2023-03-29T03:34:27;101671.65;;;-5.20;66.20
79368;BME280;68834;53.152;17.962;2023-03-29T03:36:57;101668.73;;;-5.21;66.35
79368;BME280;68834;53.152;17.962;2023-03-29T03:39:28;101668.38;;;-5.24;65.78
79368;BME280;68834;53.152;17.962;2023-03-29T03:41:55;101665.63;;;-5.31;66.51
79368;BME280;68834;53.152;17.962;2023-03-29T03:44:22;101665.09;;;-5.38;66.23
79368;BME280;68834;53.152;17.962;2023-03-29T03:46:56;101662.45;;;-5.42;66.47
79368;BME280;68834;53.152;17.962;2023-03-29T03:49:23;101662.27;;;-5.49;66.60
79368;BME280;68834;53.152;17.962;2023-03-29T03:51:49;101659.98;;;-5.53;66.18
79368;BME280;68834;53.152;17.962;2023-03-29T03:54:16;101663.71;;;-5.57;66.68
79368;BME280;68834;53.152;17.962;2023-03-29T03:57:01;101664.41;;;-5.62;66.73
79368;BME280;68834;53.152;17.962;2023-03-29T03:59:40;101659.63;;;-5.69;67.39
79368;BME280;68834;53.152;17.962;2023-03-29T04:02:10;101660.84;;;-5.78;66.93
79368;BME280;68834;53.152;17.962;2023-03-29T04:04:37;101661.45;;;-5.82;67.06
79368;BME280;68834;53.152;17.962;2023-03-29T04:07:08;101658.87;;;-5.80;66.63
79368;BME280;68834;53.152;17.962;2023-03-29T04:09:58;101653.41;;;-5.74;67.32
79368;BME280;68834;53.152;17.962;2023-03-29T04:12:37;101651.36;;;-5.71;67.08
79368;BME280;68834;53.152;17.962;2023-03-29T04:15:06;101650.06;;;-5.70;67.02
79368;BME280;68834;53.152;17.962;2023-03-29T04:17:33;101655.55;;;-5.62;67.00
79368;BME280;68834;53.152;17.962;2023-03-29T04:20:14;101653.54;;;-5.53;66.88
79368;BME280;68834;53.152;17.962;2023-03-29T04:22:40;101654.11;;;-5.45;66.58
79368;BME280;68834;53.152;17.962;2023-03-29T04:25:08;101655.95;;;-5.39;66.36
79368;BME280;68834;53.152;17.962;2023-03-29T04:28:05;101648.89;;;-5.35;65.80
79368;BME280;68834;53.152;17.962;2023-03-29T04:31:02;101653.30;;;-5.35;66.46
79368;BME280;68834;53.152;17.962;2023-03-29T04:33:48;101648.80;;;-5.36;66.53
79368;BME280;68834;53.152;17.962;2023-03-29T04:36:17;101648.55;;;-5.38;66.42
79368;BME280;68834;53.152;17.962;2023-03-29T04:38:43;101652.02;;;-5.40;66.53
79368;BME280;68834;53.152;17.962;2023-03-29T04:41:10;101650.43;;;-5.44;66.75
79368;BME280;68834;53.152;17.962;2023-03-29T04:43:56;101645.35;;;-5.53;66.65
79368;BME280;68834;53.152;17.962;2023-03-29T04:46:27;101652.00;;;-5.56;66.56
79368;BME280;68834;53.152;17.962;2023-03-29T04:49:13;101646.73;;;-5.56;66.98
79368;BME280;68834;53.152;17.962;2023-03-29T04:51:42;101643.98;;;-5.56;66.77
79368;BME280;68834;53.152;17.962;2023-03-29T04:54:09;101642.23;;;-5.57;66.74
79368;BME280;68834;53.152;17.962;2023-03-29T04:56:54;101636.27;;;-5.60;66.76
79368;BME280;68834;53.152;17.962;2023-03-29T04:59:42;101636.95;;;-5.63;66.72
79368;BME280;68834;53.152;17.962;2023-03-29T05:02:19;101635.48;;;-5.65;67.26
79368;BME280;68834;53.152;17.962;2023-03-29T05:04:48;101633.30;;;-5.68;67.24
79368;BME280;68834;53.152;17.962;2023-03-29T05:07:16;101635.55;;;-5.64;67.77
79368;BME280;68834;53.152;17.962;2023-03-29T05:09:44;101628.19;;;-5.55;67.36
79368;BME280;68834;53.152;17.962;2023-03-29T05:12:11;101630.83;;;-5.44;67.99
79368;BME280;68834;53.152;17.962;2023-03-29T05:14:48;101627.45;;;-5.31;67.14
79368;BME280;68834;53.152;17.962;2023-03-29T05:17:16;101624.44;;;-5.21;67.38
79368;BME280;68834;53.152;17.962;2023-03-29T05:19:42;101621.80;;;-5.09;67.39
79368;BME280;68834;53.152;17.962;2023-03-29T05:22:09;101625.55;;;-4.96;67.90
79368;BME280;68834;53.152;17.962;2023-03-29T05:24:36;101627.38;;;-4.80;67.70
79368;BME280;68834;53.152;17.962;2023-03-29T05:27:29;101629.23;;;-4.67;67.87
79368;BME280;68834;53.152;17.962;2023-03-29T05:30:02;101630.86;;;-4.59;67.40
79368;BME280;68834;53.152;17.962;2023-03-29T05:32:36;101628.23;;;-4.47;67.16
79368;BME280;68834;53.152;17.962;2023-03-29T05:35:04;101627.67;;;-4.41;67.30
79368;BME280;68834;53.152;17.962;2023-03-29T05:37:31;101624.52;;;-4.32;67.02
79368;BME280;68834;53.152;17.962;2023-03-29T05:40:00;101623.80;;;-4.22;67.12
79368;BME280;68834;53.152;17.962;2023-03-29T05:42:30;101622.21;;;-4.13;67.57
79368;BME280;68834;53.152;17.962;2023-03-29T05:45:00;101625.02;;;-4.04;67.57
79368;BME280;68834;53.152;17.962;2023-03-29T05:47:28;101622.25;;;-3.98;67.78
79368;BME280;68834;53.152;17.962;2023-03-29T05:49:55;101621.48;;;-3.89;67.76
79368;BME280;68834;53.152;17.962;2023-03-29T05:52:22;101616.52;;;-3.78;67.65
79368;BME280;68834;53.152;17.962;2023-03-29T05:54:50;101614.34;;;-3.70;67.22
79368;BME280;68834;53.152;17.962;2023-03-29T05:57:17;101613.06;;;-3.61;67.53
79368;BME280;68834;53.152;17.962;2023-03-29T05:59:44;101605.98;;;-3.52;66.99
79368;BME280;68834;53.152;17.962;2023-03-29T06:02:11;101607.96;;;-3.42;66.83
79368;BME280;68834;53.152;17.962;2023-03-29T06:04:41;101608.13;;;-3.31;66.81
79368;BME280;68834;53.152;17.962;2023-03-29T06:07:34;101603.08;;;-3.18;66.44
79368;BME280;68834;53.152;17.962;2023-03-29T06:10:27;101602.50;;;-3.03;66.25
79368;BME280;68834;53.152;17.962;2023-03-29T06:13:04;101600.07;;;-2.89;66.24
79368;BME280;68834;53.152;17.962;2023-03-29T06:15:33;101596.05;;;-2.74;66.05
79368;BME280;68834;53.152;17.962;2023-03-29T06:18:05;101597.70;;;-2.60;65.72
79368;BME280;68834;53.152;17.962;2023-03-29T06:20:32;101602.45;;;-2.45;65.38
79368;BME280;68834;53.152;17.962;2023-03-29T06:23:03;101600.69;;;-2.29;65.42
79368;BME280;68834;53.152;17.962;2023-03-29T06:25:29;101596.72;;;-2.13;65.00
79368;BME280;68834;53.152;17.962;2023-03-29T06:27:57;101601.40;;;-1.99;65.08
79368;BME280;68834;53.152;17.962;2023-03-29T06:30:24;101600.49;;;-1.83;64.75
79368;BME280;68834;53.152;17.962;2023-03-29T06:32:53;101600.77;;;-1.67;64.72
79368;BME280;68834;53.152;17.962;2023-03-29T06:35:36;101602.11;;;-1.50;64.33
79368;BME280;68834;53.152;17.962;2023-03-29T06:38:06;101596.69;;;-1.34;63.45
79368;BME280;68834;53.152;17.962;2023-03-29T06:41:01;101598.29;;;-1.14;62.63
79368;BME280;68834;53.152;17.962;2023-03-29T06:43:31;101591.11;;;-0.89;62.79
79368;BME280;68834;53.152;17.962;2023-03-29T06:46:07;101592.69;;;-0.63;61.54
79368;BME280;68834;53.152;17.962;2023-03-29T06:48:49;101588.11;;;-0.36;60.31
79368;BME280;68834;53.152;17.962;2023-03-29T06:51:17;101582.34;;;-0.08;59.38
79368;BME280;68834;53.152;17.962;2023-03-29T06:53:44;101576.59;;;0.23;57.82
79368;BME280;68834;53.152;17.962;2023-03-29T06:56:12;101576.05;;;0.51;56.31
79368;BME280;68834;53.152;17.962;2023-03-29T06:58:42;101570.88;;;0.74;55.95
79368;BME280;68834;53.152;17.962;2023-03-29T07:01:39;101566.31;;;1.02;56.40
79368;BME280;68834;53.152;17.962;2023-03-29T07:04:13;101562.52;;;1.28;55.48
79368;BME280;68834;53.152;17.962;2023-03-29T07:07:01;101558.86;;;1.53;51.44
79368;BME280;68834;53.152;17.962;2023-03-29T07:09:31;101555.44;;;1.75;51.52
79368;BME280;68834;53.152;17.962;2023-03-29T07:12:21;101555.94;;;2.04;49.56
79368;BME280;68834;53.152;17.962;2023-03-29T07:14:48;101553.67;;;2.26;48.58
79368;BME280;68834;53.152;17.962;2023-03-29T07:17:15;101551.77;;;2.50;49.70
79368;BME280;68834;53.152;17.962;2023-03-29T07:19:42;101546.58;;;2.74;47.42
79368;BME280;68834;53.152;17.962;2023-03-29T07:22:43;101550.54;;;3.30;45.72
79368;BME280;68834;53.152;17.962;2023-03-29T07:25:10;101543.21;;;4.98;42.61
79368;BME280;68834;53.152;17.962;2023-03-29T07:27:39;101536.64;;;7.28;38.80
79368;BME280;68834;53.152;17.962;2023-03-29T07:30:12;101529.70;;;9.53;34.98
79368;BME280;68834;53.152;17.962;2023-03-29T07:32:41;101526.72;;;11.34;33.05
79368;BME280;68834;53.152;17.962;2023-03-29T07:35:41;101521.46;;;13.26;28.78
79368;BME280;68834;53.152;17.962;2023-03-29T07:38:09;101519.15;;;14.36;26.69
79368;BME280;68834;53.152;17.962;2023-03-29T07:40:37;101519.52;;;15.62;26.04
79368;BME280;68834;53.152;17.962;2023-03-29T07:43:22;101511.61;;;16.93;24.25
79368;BME280;68834;53.152;17.962;2023-03-29T07:45:50;101504.84;;;18.10;23.72
79368;BME280;68834;53.152;17.962;2023-03-29T07:48:19;101497.89;;;19.15;21.83
79368;BME280;68834;53.152;17.962;2023-03-29T07:50:51;101496.98;;;20.14;19.80
79368;BME280;68834;53.152;17.962;2023-03-29T07:53:21;101494.90;;;20.98;20.08
79368;BME280;68834;53.152;17.962;2023-03-29T07:55:49;101494.20;;;21.77;17.71
79368;BME280;68834;53.152;17.962;2023-03-29T07:58:40;101490.21;;;22.26;16.55
79368;BME280;68834;53.152;17.962;2023-03-29T08:01:07;101488.08;;;22.32;15.51
79368;BME280;68834;53.152;17.962;2023-03-29T08:04:00;101485.66;;;22.33;16.14
79368;BME280;68834;53.152;17.962;2023-03-29T08:06:46;101486.29;;;23.37;16.32
79368;BME280;68834;53.152;17.962;2023-03-29T08:09:14;101483.73;;;24.23;15.02
79368;BME280;68834;53.152;17.962;2023-03-29T08:11:42;101485.07;;;24.75;15.46
